Airport ID:KVUF
Update Time (UTC):24/09/2022 16:15
Wind Speed (Knots):12
Wind Direction (Magnetic):200
Temperature (°C):31
Dew Point (°C):12
Humidity (%):32
Altimeter (inHg):30.07
Density Altitude (Feet):4000
Visibility:10+
Clouds (Hundreds of feet):CLR
Present Weather:
METAR:METAR KVUF 241615Z AUTO 21012KT 10SM CLR 31/12 A3007 RMK A01

The data displayed is for advisory purposes only and is not to be used for flight planning or operations.